Time;durP1;ratioP1;P1;durP2;ratioP2;P2;SDS_P1;SDS_P2;PMS_P1;PMS_P2;Temp;Humidity;BMP_temperature;BMP_pressure;BME280_temperature;BME280_humidity;BME280_pressure;Samples;Min_cycle;Max_cycle;Signal;HPM_P1;HPM_P2
2021/08/09 00:13:00;;;;;;;;;;;;;;;;;;;;;
2021/08/09 00:23:08;;;;;;;8.75;2.20;;;16.00;99.90;;;;;;5923348;23;20102;-82
2021/08/09 00:25:42;;;;;;;9.20;2.10;;;16.00;99.90;;;;;;5993860;23;20047;-82
2021/08/09 00:28:14;;;;;;;10.50;2.92;;;15.90;99.90;;;;;;5999037;23;20019;-80
2021/08/09 00:30:46;;;;;;;6.88;2.72;;;15.90;99.90;;;;;;5992884;23;20063;-82
2021/08/09 00:33:20;;;;;;;11.82;2.40;;;15.90;99.90;;;;;;5947700;23;20488;-83
2021/08/09 00:35:50;;;;;;;8.43;2.47;;;15.90;99.90;;;;;;6078127;23;20018;-80
2021/08/09 00:38:20;;;;;;;8.70;2.40;;;15.90;99.90;;;;;;6105208;23;20022;-82
2021/08/09 00:40:58;;;;;;;10.48;2.78;;;15.80;99.90;;;;;;6094773;23;20052;-81
2021/08/09 00:43:42;;;;;;;11.13;2.45;;;15.80;99.90;;;;;;6034985;23;20454;-82
2021/08/09 00:46:17;;;;;;;12.32;2.67;;;15.80;99.90;;;;;;6062176;23;20391;-82
2021/08/09 00:48:51;;;;;;;9.90;2.50;;;15.80;99.90;;;;;;6083323;23;20025;-79
2021/08/09 00:51:40;;;;;;;;;;;;;;;;;;;;;
2021/08/09 00:54:40;;;;;;;9.45;2.50;;;15.80;99.90;;;;;;6082741;23;20065;-82
2021/08/09 00:57:31;;;;;;;16.88;2.80;;;15.80;99.90;;;;;;6177758;22;20047;-83
2021/08/09 01:01:03;;;;;;;;;;;;;;;;;;;;;
2021/08/09 01:03:44;;;;;;;13.52;2.50;;;15.80;99.90;;;;;;5817575;24;20026;-82
2021/08/09 01:06:15;;;;;;;10.77;2.60;;;15.80;99.90;;;;;;5806326;24;20027;-82
2021/08/09 01:09:31;;;;;;;12.13;2.45;;;15.80;99.90;;;;;;5724752;24;20023;-82
2021/08/09 01:34:31;;;;;;;;;;;;;;;;;;;;;
2021/08/09 01:37:55;;;;;;;;;;;;;;;;;;;;;
2021/08/09 01:44:40;;;;;;;3.83;1.48;;;15.60;99.90;;;;;;4870432;28;20071;-83
2021/08/09 01:47:09;;;;;;;5.15;1.58;;;15.60;99.90;;;;;;4974736;28;20050;-82
2021/08/09 01:49:51;;;;;;;2.88;1.50;;;15.60;99.90;;;;;;4990715;28;20080;-83
2021/08/09 01:52:22;;;;;;;4.72;1.60;;;15.60;99.90;;;;;;4966218;28;20390;-83
2021/08/09 01:54:50;;;;;;;3.78;1.67;;;15.60;99.90;;;;;;4989559;28;20046;-81
2021/08/09 01:57:27;;;;;;;5.72;1.58;;;15.50;99.90;;;;;;4989589;28;20085;-81
2021/08/09 01:59:57;;;;;;;8.82;1.85;;;15.60;99.90;;;;;;5062913;28;20054;-83
2021/08/09 02:02:32;;;;;;;6.57;1.90;;;15.50;99.90;;;;;;5074356;28;20425;-81
2021/08/09 02:05:10;;;;;;;7.57;2.58;;;15.50;99.90;;;;;;5080693;28;20044;-83
2021/08/09 02:07:41;;;;;;;10.15;2.58;;;15.50;99.90;;;;;;5081922;28;20106;-83
2021/08/09 02:10:10;;;;;;;11.27;2.80;;;15.50;99.90;;;;;;5073136;28;20064;-83
2021/08/09 02:13:03;;;;;;;6.10;2.78;;;15.50;99.90;;;;;;5070295;28;20040;-83
2021/08/09 02:15:38;;;;;;;6.82;2.53;;;15.60;99.90;;;;;;5075940;28;20048;-81
2021/08/09 02:18:31;;;;;;;9.15;2.70;;;15.50;99.90;;;;;;5070680;28;20041;-82
2021/08/09 02:21:03;;;;;;;8.43;2.75;;;15.50;99.90;;;;;;5075689;28;20056;-83
2021/08/09 02:23:43;;;;;;;6.50;2.40;;;15.50;99.90;;;;;;5053621;28;20098;-83
2021/08/09 02:26:11;;;;;;;8.50;2.53;;;15.60;99.90;;;;;;5069249;28;20500;-81
2021/08/09 02:28:43;;;;;;;9.77;2.47;;;15.50;99.90;;;;;;5082398;28;20102;-80
2021/08/09 02:31:12;;;;;;;12.13;2.35;;;15.50;99.90;;;;;;5063367;28;20037;-83
2021/08/09 02:33:41;;;;;;;8.85;2.63;;;15.50;99.90;;;;;;5056839;28;20055;-81
2021/08/09 02:36:11;;;;;;;8.77;2.50;;;15.60;99.90;;;;;;5056908;28;20095;-83
2021/08/09 02:38:40;;;;;;;7.47;2.45;;;15.50;99.90;;;;;;5072390;28;20052;-79
2021/08/09 02:41:08;;;;;;;7.53;2.40;;;15.50;99.90;;;;;;5064167;28;20055;-83
2021/08/09 02:43:37;;;;;;;7.60;2.50;;;15.50;99.90;;;;;;5063924;28;20048;-81
2021/08/09 02:46:05;;;;;;;5.55;2.40;;;15.60;99.90;;;;;;5071969;28;20049;-79
2021/08/09 02:48:34;;;;;;;8.68;2.28;;;15.60;99.90;;;;;;5047560;28;20060;-80
2021/08/09 02:51:01;;;;;;;9.85;2.42;;;15.50;99.90;;;;;;5058076;28;20041;-81
2021/08/09 02:53:28;;;;;;;8.63;2.45;;;15.60;99.90;;;;;;5060203;28;20044;-80
2021/08/09 02:55:59;;;;;;;8.98;2.28;;;15.60;99.90;;;;;;5060649;28;20041;-80
2021/08/09 02:58:26;;;;;;;6.97;2.35;;;15.60;99.90;;;;;;5060047;28;20055;-82
2021/08/09 03:01:03;;;;;;;6.78;2.13;;;15.60;99.90;;;;;;5057516;28;20047;-81
2021/08/09 03:03:32;;;;;;;7.25;2.30;;;15.60;99.90;;;;;;5046550;28;20140;-82
2021/08/09 03:06:01;;;;;;;9.95;2.60;;;15.60;99.90;;;;;;5058423;28;20053;-80
2021/08/09 03:08:29;;;;;;;6.93;2.38;;;15.60;99.90;;;;;;5059604;28;20048;-80
2021/08/09 03:10:56;;;;;;;11.05;2.75;;;15.60;99.90;;;;;;5060598;28;20461;-81
2021/08/09 03:13:24;;;;;;;7.63;2.30;;;15.60;99.90;;;;;;5060277;28;20538;-82
2021/08/09 03:15:52;;;;;;;9.13;2.17;;;15.60;99.90;;;;;;5057605;28;20055;-81
2021/08/09 03:18:19;;;;;;;9.57;2.28;;;15.60;99.90;;;;;;5054737;28;20053;-82
2021/08/09 03:20:49;;;;;;;5.80;2.20;;;15.60;99.90;;;;;;5059365;28;20481;-82
2021/08/09 03:23:16;;;;;;;8.85;2.60;;;15.60;99.90;;;;;;5067810;28;20053;-82
2021/08/09 03:25:43;;;;;;;11.13;2.72;;;15.60;99.90;;;;;;5068009;28;20124;-83
2021/08/09 03:28:10;;;;;;;13.18;3.35;;;15.60;99.90;;;;;;5058825;28;20106;-82
2021/08/09 03:30:45;;;;;;;12.00;3.05;;;15.60;99.90;;;;;;5058465;28;20041;-82
2021/08/09 03:33:53;;;;;;;12.27;3.50;;;15.70;99.90;;;;;;5063668;28;20053;-83
2021/08/09 03:36:22;;;;;;;9.93;3.17;;;15.70;99.90;;;;;;5073862;28;20041;-83
2021/08/09 03:38:49;;;;;;;12.38;2.85;;;15.60;99.90;;;;;;5058961;28;20041;-82
2021/08/09 03:41:16;;;;;;;11.23;3.15;;;15.60;99.90;;;;;;5048886;28;20068;-81
2021/08/09 03:43:43;;;;;;;9.88;3.35;;;15.60;99.90;;;;;;5060052;28;20132;-82
2021/08/09 03:46:10;;;;;;;11.70;3.90;;;15.60;99.90;;;;;;5058622;28;20476;-82
2021/08/09 03:48:39;;;;;;;11.25;4.00;;;15.60;99.90;;;;;;5055496;28;20064;-82
2021/08/09 03:51:06;;;;;;;10.55;3.80;;;15.60;99.90;;;;;;5056011;28;20049;-82
2021/08/09 03:53:33;;;;;;;18.67;3.92;;;15.70;99.90;;;;;;5059680;28;20492;-83
2021/08/09 03:56:00;;;;;;;13.43;4.95;;;15.70;99.90;;;;;;5059795;28;20049;-82
2021/08/09 03:58:27;;;;;;;11.63;5.15;;;15.60;99.90;;;;;;5058553;28;20044;-81
2021/08/09 04:00:54;;;;;;;12.52;4.75;;;15.70;99.90;;;;;;5057110;28;20109;-82
2021/08/09 04:03:21;;;;;;;11.77;4.07;;;15.70;99.90;;;;;;5070629;28;20036;-82
2021/08/09 04:05:48;;;;;;;12.27;3.95;;;15.70;99.90;;;;;;5058835;28;20411;-82
2021/08/09 04:08:16;;;;;;;23.27;4.25;;;15.70;99.90;;;;;;5059077;28;20049;-82
2021/08/09 04:10:46;;;;;;;14.52;4.90;;;15.70;99.90;;;;;;5059708;28;20489;-81
2021/08/09 04:13:12;;;;;;;14.82;4.30;;;15.70;99.90;;;;;;5058608;28;20044;-80
2021/08/09 04:15:40;;;;;;;16.98;4.20;;;15.70;99.90;;;;;;5054772;28;20048;-82
2021/08/09 04:18:07;;;;;;;15.50;4.03;;;15.80;99.90;;;;;;5055226;28;20539;-82
2021/08/09 04:20:34;;;;;;;12.73;4.00;;;15.80;99.90;;;;;;5059494;28;20071;-82
2021/08/09 04:23:01;;;;;;;14.18;4.20;;;15.80;99.90;;;;;;5059231;28;20124;-79
2021/08/09 04:25:28;;;;;;;15.98;4.53;;;15.80;99.90;;;;;;5058651;28;20044;-82
2021/08/09 04:27:55;;;;;;;13.70;4.75;;;15.80;99.90;;;;;;5056357;28;20041;-81
2021/08/09 04:30:22;;;;;;;16.20;4.25;;;15.80;99.90;;;;;;5057060;28;20048;-83
2021/08/09 04:32:49;;;;;;;15.10;4.22;;;15.80;99.90;;;;;;5057679;28;20068;-83
2021/08/09 04:35:16;;;;;;;12.43;4.53;;;15.80;99.90;;;;;;5058407;28;20045;-82
2021/08/09 04:37:43;;;;;;;15.80;4.50;;;15.90;99.90;;;;;;5059079;28;20053;-82
2021/08/09 04:40:13;;;;;;;18.90;4.00;;;15.90;99.90;;;;;;5057636;28;20045;-82
2021/08/09 04:42:40;;;;;;;15.60;4.00;;;15.90;99.90;;;;;;5070347;28;20125;-82
2021/08/09 04:45:07;;;;;;;13.90;4.25;;;15.90;99.90;;;;;;5054910;28;20433;-83
2021/08/09 04:47:34;;;;;;;15.57;4.22;;;15.90;99.90;;;;;;5059158;28;20045;-82
2021/08/09 04:50:01;;;;;;;19.15;4.68;;;15.90;99.90;;;;;;5058882;28;20048;-79
2021/08/09 04:52:29;;;;;;;11.85;4.72;;;15.90;99.90;;;;;;5058046;28;20048;-82
2021/08/09 04:54:55;;;;;;;19.20;4.88;;;15.90;99.90;;;;;;5056414;28;20047;-82
2021/08/09 04:57:23;;;;;;;15.25;4.03;;;15.90;99.90;;;;;;5053413;28;20041;-82
2021/08/09 04:59:50;;;;;;;15.35;4.93;;;15.90;99.90;;;;;;5057229;28;20052;-82
2021/08/09 05:02:17;;;;;;;15.82;4.55;;;15.90;99.90;;;;;;5057941;28;20051;-82
2021/08/09 05:04:44;;;;;;;16.88;4.80;;;15.90;99.90;;;;;;5058848;28;20052;-82
2021/08/09 05:07:11;;;;;;;16.67;4.20;;;15.90;99.90;;;;;;5057277;28;20040;-81
2021/08/09 05:09:38;;;;;;;15.77;4.47;;;15.90;99.90;;;;;;5054153;28;20048;-82
2021/08/09 05:12:06;;;;;;;16.37;4.87;;;15.90;99.90;;;;;;5054966;28;20048;-82
2021/08/09 05:14:34;;;;;;;16.60;4.32;;;15.90;99.90;;;;;;5058334;28;20045;-83
2021/08/09 05:17:01;;;;;;;17.88;4.28;;;15.90;99.90;;;;;;5058289;28;20392;-82
2021/08/09 05:19:30;;;;;;;12.15;4.03;;;15.90;99.90;;;;;;5049869;28;20127;-82
2021/08/09 05:21:59;;;;;;;13.43;4.43;;;15.90;99.90;;;;;;5070154;28;20127;-81
2021/08/09 05:24:26;;;;;;;13.43;3.70;;;15.90;99.90;;;;;;5053133;28;20461;-83
2021/08/09 05:26:55;;;;;;;13.48;3.13;;;15.90;99.90;;;;;;5035703;28;20052;-81
2021/08/09 05:29:22;;;;;;;;;;;15.90;99.90;;;;;;5065836;28;20049;-81
2021/08/09 05:31:49;;;;;;;12.95;3.28;;;15.90;99.90;;;;;;5060921;28;19921;-82
2021/08/09 05:34:16;;;;;;;23.13;3.80;;;15.90;99.90;;;;;;5058006;28;21010;-81
2021/08/09 05:36:44;;;;;;;13.65;2.90;;;15.90;99.90;;;;;;5054073;28;20049;-82
2021/08/09 05:39:11;;;;;;;14.35;3.38;;;15.90;99.90;;;;;;5065405;28;20048;-81
2021/08/09 05:41:38;;;;;;;14.00;3.40;;;15.90;99.90;;;;;;5038849;28;20059;-80
2021/08/09 05:44:11;;;;;;;12.88;2.97;;;15.90;99.90;;;;;;5061102;28;20135;-82
2021/08/09 05:46:38;;;;;;;14.77;3.13;;;15.90;99.90;;;;;;5066572;28;20061;-82
2021/08/09 05:49:05;;;;;;;10.07;3.28;;;16.00;99.90;;;;;;5048079;28;20059;-78
2021/08/09 05:51:39;;;;;;;11.73;3.22;;;16.00;99.90;;;;;;5053959;28;20381;-82
2021/08/09 05:54:08;;;;;;;14.48;3.55;;;16.00;99.90;;;;;;5044906;28;20052;-79
2021/08/09 05:56:35;;;;;;;10.77;3.50;;;16.00;99.90;;;;;;5057778;28;20051;-82
2021/08/09 05:59:05;;;;;;;12.55;3.47;;;16.00;99.90;;;;;;5064537;28;20040;-80
2021/08/09 06:01:35;;;;;;;14.20;3.67;;;16.00;99.90;;;;;;5056331;28;20051;-83
2021/08/09 06:04:02;;;;;;;22.38;4.30;;;16.10;99.90;;;;;;5055542;28;20048;-80
2021/08/09 06:06:29;;;;;;;18.23;4.25;;;16.00;99.90;;;;;;5055749;28;20553;-82
2021/08/09 06:08:56;;;;;;;17.98;4.07;;;16.00;99.90;;;;;;5059604;28;20485;-80
2021/08/09 06:11:23;;;;;;;21.08;3.67;;;16.10;99.90;;;;;;5046422;28;20060;-83
2021/08/09 06:13:56;;;;;;;17.85;3.40;;;16.10;99.90;;;;;;5066349;28;20044;-83
2021/08/09 06:16:25;;;;;;;14.73;3.92;;;16.10;99.90;;;;;;5071126;28;20079;-82
2021/08/09 06:18:54;;;;;;;14.57;3.28;;;16.10;99.90;;;;;;5058709;28;20398;-80
2021/08/09 06:21:24;;;;;;;16.23;3.42;;;16.10;99.90;;;;;;5055798;28;20545;-81
2021/08/09 06:23:51;;;;;;;22.95;4.07;;;16.20;99.90;;;;;;5059787;28;20049;-83
2021/08/09 06:26:20;;;;;;;11.88;3.40;;;16.20;99.90;;;;;;5060666;28;20064;-80
2021/08/09 06:28:47;;;;;;;18.85;3.95;;;16.30;99.90;;;;;;5061380;28;20080;-83
2021/08/09 06:31:15;;;;;;;11.70;3.67;;;16.30;99.90;;;;;;5055011;28;20047;-82
2021/08/09 06:33:48;;;;;;;15.07;4.40;;;16.40;99.90;;;;;;5048541;28;20046;-83
2021/08/09 06:36:15;;;;;;;11.57;3.70;;;16.30;99.90;;;;;;5072215;28;20053;-83
2021/08/09 06:38:44;;;;;;;11.65;3.50;;;16.40;99.90;;;;;;5060656;28;20048;-82
2021/08/09 06:41:13;;;;;;;12.95;3.80;;;16.40;99.90;;;;;;5049739;28;20048;-82
2021/08/09 06:43:43;;;;;;;13.73;3.60;;;16.40;99.90;;;;;;5061391;28;20099;-83
2021/08/09 06:46:11;;;;;;;20.73;4.32;;;16.40;99.90;;;;;;5051348;28;20384;-83
2021/08/09 06:48:38;;;;;;;15.60;4.25;;;16.50;99.90;;;;;;5055996;28;20071;-83
2021/08/09 06:51:05;;;;;;;15.43;4.13;;;16.50;99.90;;;;;;5041422;28;20127;-82
2021/08/09 06:53:32;;;;;;;16.58;4.05;;;16.60;99.90;;;;;;5060669;28;20102;-81
2021/08/09 06:56:03;;;;;;;12.05;3.63;;;16.60;99.90;;;;;;5052505;28;20126;-83
2021/08/09 06:58:36;;;;;;;10.43;3.42;;;16.60;99.90;;;;;;5023423;28;20048;-81
2021/08/09 07:01:06;;;;;;;13.93;4.13;;;16.70;99.90;;;;;;5042577;28;20205;-84
2021/08/09 07:03:38;;;;;;;10.45;3.72;;;16.80;99.90;;;;;;5049648;28;20135;-83
2021/08/09 07:06:05;;;;;;;17.65;4.45;;;16.80;99.90;;;;;;5056138;28;20052;-82
2021/08/09 07:08:34;;;;;;;10.63;3.47;;;16.90;99.90;;;;;;5051831;28;20049;-80
2021/08/09 07:11:04;;;;;;;15.35;4.22;;;16.90;99.90;;;;;;5060269;28;20397;-83
2021/08/09 07:13:31;;;;;;;11.80;3.42;;;17.00;99.90;;;;;;5051407;28;20060;-81
2021/08/09 07:16:01;;;;;;;12.55;2.90;;;17.00;99.90;;;;;;5057614;28;20068;-80
2021/08/09 07:18:32;;;;;;;9.75;3.13;;;17.00;99.90;;;;;;5020236;28;20543;-83
2021/08/09 07:21:10;;;;;;;14.48;3.40;;;17.00;99.90;;;;;;5055960;28;20037;-83
2021/08/09 07:23:46;;;;;;;12.10;3.03;;;17.10;99.90;;;;;;5025066;28;20167;-83
2021/08/09 07:26:15;;;;;;;11.23;2.97;;;17.10;99.90;;;;;;5042516;28;20055;-81
2021/08/09 07:28:46;;;;;;;11.25;2.92;;;17.10;99.90;;;;;;5060048;28;20052;-83
2021/08/09 07:31:15;;;;;;;12.77;3.00;;;17.20;99.90;;;;;;5040561;28;20036;-83
2021/08/09 07:33:47;;;;;;;13.90;3.15;;;17.30;99.90;;;;;;5056880;28;20044;-83
2021/08/09 07:36:29;;;;;;;12.50;2.67;;;17.30;99.90;;;;;;5057899;28;20449;-82
2021/08/09 07:39:06;;;;;;;10.20;2.50;;;17.40;99.90;;;;;;5048065;28;20299;-83
2021/08/09 07:41:50;;;;;;;12.23;2.70;;;17.40;99.90;;;;;;5025376;28;20464;-83
2021/08/09 07:44:45;;;;;;;12.63;2.88;;;17.50;99.90;;;;;;5008426;28;20429;-82
2021/08/09 07:47:53;;;;;;;;;;;;;;;;;;;;;
2021/08/09 07:50:44;;;;;;;;;;;;;;;;;;;;;
2021/08/09 07:53:18;;;;;;;10.88;2.17;;;17.70;99.90;;;;;;5003801;28;20050;-83
2021/08/09 07:55:49;;;;;;;8.63;2.05;;;17.80;99.90;;;;;;5014158;28;20508;-84
2021/08/09 07:58:40;;;;;;;8.13;2.53;;;17.80;99.90;;;;;;5028082;28;20053;-83
2021/08/09 08:01:20;;;;;;;12.13;2.42;;;17.80;99.90;;;;;;4997520;28;20137;-82
2021/08/09 08:03:53;;;;;;;8.73;2.38;;;17.80;99.90;;;;;;5043212;28;20044;-82
2021/08/09 08:06:53;;;;;;;9.38;2.25;;;17.90;99.90;;;;;;5061444;28;20561;-83
2021/08/09 08:09:21;;;;;;;7.35;2.28;;;17.90;99.90;;;;;;5064115;28;20137;-81
2021/08/09 08:11:55;;;;;;;7.28;1.90;;;17.90;99.90;;;;;;5064416;28;20040;-83
2021/08/09 08:14:28;;;;;;;8.43;2.42;;;17.90;99.90;;;;;;5035832;28;20092;-83
2021/08/09 08:16:56;;;;;;;10.40;2.20;;;18.00;99.90;;;;;;5065734;28;20051;-82
2021/08/09 08:19:23;;;;;;;11.25;2.17;;;18.00;99.90;;;;;;5068670;28;20041;-83
2021/08/09 08:22:04;;;;;;;7.03;1.80;;;18.10;99.90;;;;;;5055952;28;20127;-81
2021/08/09 08:24:31;;;;;;;9.07;2.03;;;18.20;99.90;;;;;;5054184;28;20387;-83
2021/08/09 08:27:19;;;;;;;7.88;1.92;;;18.10;99.90;;;;;;5008060;28;20049;-83
2021/08/09 08:29:48;;;;;;;7.13;1.88;;;18.20;99.90;;;;;;4984359;28;20137;-83
2021/08/09 08:32:27;;;;;;;6.95;1.95;;;18.30;99.90;;;;;;4982797;28;20379;-80
2021/08/09 08:35:00;;;;;;;8.95;1.67;;;18.40;99.90;;;;;;4971590;28;20050;-82
2021/08/09 08:37:41;;;;;;;7.15;1.67;;;18.60;99.90;;;;;;5006856;28;20053;-83
2021/08/09 08:40:11;;;;;;;7.78;1.75;;;18.70;99.90;;;;;;4980430;28;20052;-82
2021/08/09 08:42:42;;;;;;;7.18;1.60;;;19.00;99.90;;;;;;4968573;28;20054;-83
2021/08/09 08:45:20;;;;;;;7.32;1.80;;;19.20;99.90;;;;;;5005341;28;20044;-83
2021/08/09 08:48:04;;;;;;;7.60;1.40;;;19.50;99.90;;;;;;5053279;28;20051;-83
2021/08/09 08:51:11;;;;;;;;;;;;;;;;;;;;;
2021/08/09 08:53:58;;;;;;;4.35;1.67;;;19.80;99.90;;;;;;5020107;28;20065;-83
2021/08/09 08:56:43;;;;;;;6.75;1.88;;;19.90;99.90;;;;;;4983319;28;20390;-83
2021/08/09 08:59:27;;;;;;;4.35;1.50;;;19.90;99.90;;;;;;5046548;28;20400;-83
2021/08/09 09:02:28;;;;;;;7.90;1.95;;;19.90;99.90;;;;;;5041272;28;20476;-84
2021/08/09 09:05:17;;;;;;;5.25;1.45;;;20.00;99.90;;;;;;5023442;28;20063;-83
2021/08/09 09:08:23;;;;;;;;;;;;;;;;;;;;;
2021/08/09 09:11:39;;;;;;;4.65;1.40;;;20.10;99.90;;;;;;5030398;28;20064;-83
2021/08/09 09:14:13;;;;;;;;;;;20.10;99.90;;;;;;5030757;28;20418;-83
2021/08/09 09:16:51;;;;;;;4.75;1.30;;;20.00;99.90;;;;;;5047589;28;20353;-83
2021/08/09 09:19:48;;;;;;;;;;;;;;;;;;;;;
2021/08/09 09:22:34;;;;;;;;;;;;;;;;;;;;;
2021/08/09 09:29:12;;;;;;;5.90;1.50;;;19.80;99.90;;;;;;4988088;28;20036;-83
2021/08/09 09:33:17;;;;;;;5.47;1.60;;;20.00;99.90;;;;;;4909731;28;20125;-83
2021/08/09 09:36:17;;;;;;;4.28;1.50;;;20.20;99.90;;;;;;4810694;29;20057;-83
2021/08/09 09:39:30;;;;;;;6.60;1.50;;;20.30;99.90;;;;;;4862920;29;20601;-82
2021/08/09 09:42:59;;;;;;;;;;;;;;;;;;;;;
2021/08/09 09:46:01;;;;;;;;;;;;;;;;;;;;;
2021/08/09 10:07:15;;;;;;;4.77;1.37;;;20.80;99.90;;;;;;5543560;22;15104947;-81
2021/08/09 10:10:27;;;;;;;;;;;;;;;;;;;;;
2021/08/09 10:13:40;;;;;;;;;;;;;;;;;;;;;
2021/08/09 10:17:49;;;;;;;;;;;;;;;;;;;;;
2021/08/09 10:39:20;;;;;;;;;;;;;;;;;;;;;
2021/08/09 10:42:45;;;;;;;3.92;1.48;;;21.80;99.90;;;;;;5946163;23;20020;-81
2021/08/09 10:46:22;;;;;;;;;;;;;;;;;;;;;
2021/08/09 17:36:46;;;;;;;5.88;2.00;;;20.00;99.90;;;;;;5393018;22;18679768;-83
2021/08/09 17:40:20;;;;;;;;;;;;;;;;;;;;;
2021/08/09 17:54:00;;;;;;;7.95;2.97;;;19.80;99.90;;;;;;5480927;22;17538609;-82
2021/08/09 17:57:31;;;;;;;;;;;;;;;;;;;;;
2021/08/09 18:03:58;;;;;;;6.65;2.88;;;19.20;99.90;;;;;;5864148;24;20388;-83
2021/08/09 18:06:43;;;;;;;9.32;2.92;;;19.20;99.90;;;;;;5883822;24;20390;-83
2021/08/09 18:09:33;;;;;;;9.88;3.30;;;19.20;99.90;;;;;;5962530;23;20079;-84
2021/08/09 18:12:21;;;;;;;12.75;3.90;;;19.10;99.90;;;;;;5988442;23;20031;-83
2021/08/09 18:15:11;;;;;;;12.05;3.40;;;19.10;99.90;;;;;;5884042;24;20032;-81
2021/08/09 18:18:04;;;;;;;;;;;;;;;;;;;;;
2021/08/09 18:21:25;;;;;;;;;;;;;;;;;;;;;
2021/08/09 18:27:51;;;;;;;11.15;4.30;;;18.90;99.90;;;;;;5862489;24;20115;-84
2021/08/09 18:30:50;;;;;;;9.15;5.20;;;18.80;99.90;;;;;;5800566;24;20033;-83
2021/08/09 18:34:28;;;;;;;;;;;;;;;;;;;;;
2021/08/09 18:37:12;;;;;;;;;;;;;;;;;;;;;
2021/08/09 18:42:42;;;;;;;7.88;2.90;;;18.60;99.90;;;;;;5737530;24;20456;-83
2021/08/09 18:45:31;;;;;;;;;;;18.60;99.90;;;;;;5808236;24;20018;-83
2021/08/09 18:48:10;;;;;;;10.65;3.25;;;18.50;99.90;;;;;;6046748;23;19922;-79
2021/08/09 18:50:49;;;;;;;;;;;;;;;;;;;;;
2021/08/09 18:53:40;;;;;;;8.93;2.90;;;18.40;99.90;;;;;;5963815;23;20029;-82
2021/08/09 18:56:08;;;;;;;7.10;2.97;;;18.40;99.90;;;;;;5964330;23;20031;-81
2021/08/09 18:58:35;;;;;;;9.50;3.45;;;18.40;99.90;;;;;;5975077;23;20084;-82
2021/08/09 19:01:05;;;;;;;8.80;2.80;;;18.30;99.90;;;;;;5975500;23;20052;-82
2021/08/09 19:03:32;;;;;;;6.63;2.50;;;18.30;99.90;;;;;;5999180;23;20026;-82
2021/08/09 19:05:59;;;;;;;6.68;2.50;;;18.30;99.90;;;;;;6069550;23;20049;-80
2021/08/09 19:08:28;;;;;;;7.00;2.75;;;18.20;99.90;;;;;;6092999;23;20097;-82
2021/08/09 19:10:57;;;;;;;5.22;2.33;;;18.20;99.90;;;;;;6113088;23;20028;-82
2021/08/09 19:13:24;;;;;;;5.97;2.80;;;18.10;99.90;;;;;;6181966;23;20033;-81
2021/08/09 19:15:51;;;;;;;5.00;2.80;;;18.20;99.90;;;;;;6183902;23;20016;-82
2021/08/09 19:18:18;;;;;;;5.28;3.00;;;18.10;99.90;;;;;;6183212;23;20021;-79
2021/08/09 19:20:50;;;;;;;7.45;3.60;;;18.10;99.90;;;;;;6184141;23;20021;-82
2021/08/09 19:23:17;;;;;;;8.02;3.03;;;18.10;99.90;;;;;;6170738;23;20028;-81
2021/08/09 19:25:47;;;;;;;6.22;2.90;;;18.00;99.90;;;;;;6183926;23;20021;-81
2021/08/09 19:28:20;;;;;;;7.82;2.70;;;18.00;99.90;;;;;;6161337;23;20314;-82
2021/08/09 19:30:48;;;;;;;6.22;3.25;;;18.00;99.90;;;;;;6183866;23;20017;-80
2021/08/09 19:33:16;;;;;;;7.10;3.42;;;18.00;99.90;;;;;;6182838;23;20068;-82
2021/08/09 19:35:44;;;;;;;5.30;3.17;;;18.00;99.90;;;;;;6183492;23;20017;-81
2021/08/09 19:38:11;;;;;;;3.55;2.35;;;18.00;99.90;;;;;;6181819;23;20047;-81
2021/08/09 19:40:38;;;;;;;4.88;2.47;;;18.00;99.90;;;;;;6183118;23;20029;-81
2021/08/09 19:43:35;;;;;;;3.90;2.58;;;17.90;99.90;;;;;;6169170;23;20017;-79
2021/08/09 19:46:35;;;;;;;;;;;;;;;;;;;;;
2021/08/09 19:49:47;;;;;;;;;;;;;;;;;;;;;
2021/08/09 19:52:43;;;;;;;3.53;2.30;;;17.80;99.90;;;;;;5913612;23;20025;-83
2021/08/09 19:55:47;;;;;;;5.03;2.47;;;17.70;99.90;;;;;;5952693;23;20074;-80
2021/08/09 19:58:39;;;;;;;4.38;2.45;;;17.50;99.90;;;;;;5800896;24;20033;-82
2021/08/09 20:01:06;;;;;;;5.50;2.50;;;17.40;99.90;;;;;;5928155;24;20025;-82
2021/08/09 20:03:33;;;;;;;5.22;2.17;;;17.40;99.90;;;;;;5924089;24;20032;-82
2021/08/09 20:06:02;;;;;;;2.42;1.85;;;17.30;99.90;;;;;;5923513;24;20668;-82
2021/08/09 20:08:34;;;;;;;4.63;2.03;;;17.20;99.90;;;;;;5995019;23;20027;-82
2021/08/09 20:11:11;;;;;;;5.88;2.22;;;17.20;99.90;;;;;;5999699;23;20023;-80
2021/08/09 20:14:01;;;;;;;5.30;2.17;;;17.10;99.90;;;;;;5963532;23;20178;-80
2021/08/09 20:17:05;;;;;;;;;;;;;;;;;;;;;
2021/08/09 20:20:10;;;;;;;;;;;;;;;;;;;;;
2021/08/09 20:29:11;;;;;;;2.70;1.50;;;17.00;99.90;;;;;;5725376;24;20015;-81
2021/08/09 20:31:40;;;;;;;3.40;1.77;;;16.90;99.90;;;;;;5729836;24;20035;-81
2021/08/09 20:34:57;;;;;;;;;;;;;;;;;;;;;
2021/08/09 20:37:47;;;;;;;5.68;1.40;;;16.90;99.90;;;;;;5740146;24;20022;-81
2021/08/09 20:51:21;;;;;;;4.70;2.10;;;16.90;99.90;;;;;;5821726;22;8899654;-84
2021/08/09 20:54:01;;;;;;;3.17;1.75;;;16.70;99.90;;;;;;6124659;23;20017;-83
2021/08/09 20:56:54;;;;;;;5.38;1.98;;;16.70;99.90;;;;;;6016489;23;20030;-81
2021/08/09 20:59:21;;;;;;;3.63;1.77;;;16.70;99.90;;;;;;5993390;23;20345;-83
2021/08/09 21:01:50;;;;;;;4.45;1.80;;;16.70;99.90;;;;;;6025375;23;20015;-83
2021/08/09 21:04:25;;;;;;;4.78;1.98;;;16.70;99.90;;;;;;6036725;23;20023;-83
2021/08/09 21:07:16;;;;;;;4.95;2.05;;;16.80;99.90;;;;;;6049660;23;20135;-83
2021/08/09 21:09:45;;;;;;;5.80;2.50;;;16.80;99.90;;;;;;6035976;23;20019;-83
2021/08/09 21:12:14;;;;;;;6.50;2.30;;;16.80;99.90;;;;;;6034688;23;20531;-83
2021/08/09 21:14:41;;;;;;;3.20;2.13;;;16.80;99.90;;;;;;6106771;23;20017;-83
2021/08/09 21:17:16;;;;;;;4.68;2.25;;;16.80;99.90;;;;;;6139614;23;20371;-83
2021/08/09 21:19:43;;;;;;;3.45;2.30;;;16.80;99.90;;;;;;6165567;23;20016;-83
2021/08/09 21:22:14;;;;;;;5.78;2.40;;;16.80;99.90;;;;;;6165662;23;20403;-82
2021/08/09 21:24:44;;;;;;;5.70;2.53;;;16.80;99.90;;;;;;6130347;23;20156;-83
2021/08/09 21:27:18;;;;;;;4.57;2.35;;;16.80;99.90;;;;;;6128071;23;20024;-83
2021/08/09 21:29:47;;;;;;;3.10;2.40;;;16.90;99.90;;;;;;6165568;23;20092;-82
2021/08/09 21:32:19;;;;;;;6.75;2.70;;;16.90;99.90;;;;;;6153803;23;20418;-83
2021/08/09 21:34:51;;;;;;;9.23;3.08;;;16.80;99.90;;;;;;6166987;23;20358;-83
2021/08/09 21:37:18;;;;;;;5.53;3.17;;;16.80;99.90;;;;;;6152757;23;20020;-83
2021/08/09 21:39:48;;;;;;;5.95;3.13;;;16.90;99.90;;;;;;6166194;23;20104;-83
2021/08/09 21:42:15;;;;;;;5.85;3.13;;;16.90;99.90;;;;;;6164559;23;20307;-83
2021/08/09 21:44:53;;;;;;;6.85;3.58;;;16.90;99.90;;;;;;6154490;23;20017;-82
2021/08/09 21:47:25;;;;;;;8.25;3.53;;;16.90;99.90;;;;;;6134514;23;20029;-82
2021/08/09 21:50:01;;;;;;;8.52;3.60;;;16.90;99.90;;;;;;6159496;23;20492;-80
2021/08/09 21:52:37;;;;;;;8.02;3.72;;;16.90;99.90;;;;;;6114706;23;20033;-81
2021/08/09 21:55:09;;;;;;;10.32;4.07;;;16.90;99.90;;;;;;6123890;23;20453;-80
2021/08/09 21:57:46;;;;;;;9.32;3.85;;;16.90;99.90;;;;;;6151974;23;20053;-83
2021/08/09 22:00:21;;;;;;;12.48;4.32;;;16.90;99.90;;;;;;6129370;23;20096;-83
2021/08/09 22:03:06;;;;;;;11.63;4.05;;;16.90;99.90;;;;;;6129123;23;20442;-83
2021/08/09 22:06:00;;;;;;;7.38;3.95;;;16.90;99.90;;;;;;6145348;23;20430;-83
2021/08/09 22:08:27;;;;;;;9.35;4.22;;;16.90;99.90;;;;;;6152853;23;20029;-81
2021/08/09 22:10:54;;;;;;;15.45;4.38;;;17.00;99.90;;;;;;6144816;23;20024;-82
2021/08/09 22:13:21;;;;;;;8.23;3.72;;;16.90;99.90;;;;;;6153180;23;20017;-83
2021/08/09 22:15:49;;;;;;;10.05;4.25;;;16.90;99.90;;;;;;6154050;23;20021;-82
2021/08/09 22:18:16;;;;;;;10.15;3.80;;;16.90;99.90;;;;;;6153555;23;20094;-82
2021/08/09 22:20:51;;;;;;;10.50;3.90;;;16.90;99.90;;;;;;6154470;23;20077;-83
2021/08/09 22:23:18;;;;;;;13.00;3.83;;;16.90;99.90;;;;;;6152106;23;20021;-82
2021/08/09 22:25:47;;;;;;;10.82;3.63;;;16.90;99.90;;;;;;6153872;23;20048;-83
2021/08/09 22:28:14;;;;;;;11.00;4.13;;;16.90;99.90;;;;;;6152646;23;20065;-83
2021/08/09 22:30:43;;;;;;;14.43;4.25;;;16.90;99.90;;;;;;6153412;23;20049;-83
2021/08/09 22:33:11;;;;;;;;;;;16.90;99.90;;;;;;6137556;23;20024;-83
2021/08/09 22:35:59;;;;;;;10.40;3.95;;;16.90;99.90;;;;;;6124304;23;19971;-83
2021/08/09 22:38:33;;;;;;;15.75;4.60;;;16.90;99.90;;;;;;6068752;23;20030;-82
2021/08/09 22:41:22;;;;;;;11.52;4.07;;;16.90;99.90;;;;;;6135285;23;20303;-84
2021/08/09 22:44:10;;;;;;;9.95;3.75;;;16.90;99.90;;;;;;6117350;23;20025;-81
2021/08/09 22:47:17;;;;;;;12.90;4.40;;;16.90;99.90;;;;;;6051616;23;20054;-83
2021/08/09 22:49:51;;;;;;;13.13;4.45;;;16.90;99.90;;;;;;6070450;23;20014;-83
2021/08/09 22:52:46;;;;;;;13.25;4.80;;;16.80;99.90;;;;;;6054973;23;20033;-81
2021/08/09 22:55:52;;;;;;;;;;;;;;;;;;;;;
2021/08/09 22:58:43;;;;;;;;;;;;;;;;;;;;;
2021/08/09 23:01:32;;;;;;;13.77;4.75;;;16.90;99.90;;;;;;5907790;24;20028;-83
2021/08/09 23:04:38;;;;;;;10.07;4.30;;;16.90;99.90;;;;;;5856014;24;20111;-82
2021/08/09 23:07:18;;;;;;;10.48;4.25;;;16.90;99.90;;;;;;5881818;24;20032;-83
2021/08/09 23:10:26;;;;;;;11.00;4.07;;;16.90;99.90;;;;;;5946329;24;20068;-81